createdAt,value
2019-05-17T00:00:47.440Z,8.10
2019-05-17T00:03:17.008Z,7.00
2019-05-17T00:05:46.483Z,6.35
2019-05-17T00:08:13.691Z,6.15
2019-05-17T00:10:40.428Z,6.58
2019-05-17T00:13:08.298Z,6.37
2019-05-17T00:15:37.126Z,5.30
2019-05-17T00:18:03.826Z,6.12
2019-05-17T00:20:30.288Z,6.22
2019-05-17T00:22:57.349Z,5.97
2019-05-17T00:25:24.067Z,5.05
2019-05-17T00:27:50.552Z,7.20
2019-05-17T00:30:17.770Z,7.53
2019-05-17T00:32:44.684Z,7.00
2019-05-17T00:35:11.585Z,5.15
2019-05-17T00:37:38.126Z,6.62
2019-05-17T00:40:07.823Z,5.85
2019-05-17T00:42:34.370Z,7.17
2019-05-17T00:45:06.754Z,4.55
2019-05-17T00:47:33.443Z,5.80
2019-05-17T00:49:59.866Z,4.60
2019-05-17T00:52:27.224Z,4.60
2019-05-17T00:54:56.228Z,5.60
2019-05-17T00:57:22.463Z,7.00
2019-05-17T00:59:49.686Z,5.55
2019-05-17T01:02:16.404Z,5.87
2019-05-17T01:04:43.160Z,5.92
2019-05-17T01:07:09.667Z,6.83
2019-05-17T01:09:36.774Z,5.17
2019-05-17T01:12:03.591Z,4.70
2019-05-17T01:14:30.271Z,7.17
2019-05-17T01:16:56.806Z,5.45
2019-05-17T01:19:23.471Z,5.42
2019-05-17T01:21:49.953Z,5.65
2019-05-17T01:24:17.352Z,5.42
2019-05-17T01:26:44.101Z,7.45
2019-05-17T01:29:10.695Z,7.28
2019-05-17T01:31:37.476Z,8.23
2019-05-17T01:34:04.346Z,5.75
2019-05-17T01:36:30.810Z,6.53
2019-05-17T01:38:57.735Z,7.42
2019-05-17T01:41:26.542Z,6.78
2019-05-17T01:43:52.820Z,5.10
2019-05-17T01:46:19.291Z,8.60
2019-05-17T01:48:47.078Z,5.70
2019-05-17T01:51:13.964Z,7.62
2019-05-17T01:53:40.480Z,5.55
2019-05-17T01:56:07.159Z,6.40
2019-05-17T01:58:33.662Z,8.08
2019-05-17T02:01:00.292Z,5.85
2019-05-17T02:03:26.919Z,6.37
2019-05-17T02:05:53.603Z,6.17
2019-05-17T02:08:20.040Z,6.25
2019-05-17T02:10:46.682Z,5.65
2019-05-17T02:13:16.296Z,10.20
2019-05-17T02:15:42.751Z,6.37
2019-05-17T02:18:09.290Z,10.08
2019-05-17T02:20:37.204Z,7.92
2019-05-17T02:23:04.016Z,7.37
2019-05-17T02:25:30.779Z,6.78
2019-05-17T02:27:57.510Z,10.10
2019-05-17T02:30:24.135Z,8.33
2019-05-17T02:32:54.124Z,7.95
2019-05-17T02:35:23.118Z,6.53
2019-05-17T02:37:49.178Z,9.13
2019-05-17T02:40:17.023Z,9.18
2019-05-17T02:42:43.814Z,7.92
2019-05-17T02:45:13.323Z,8.58
2019-05-17T02:47:43.083Z,7.90
2019-05-17T02:50:23.364Z,8.10
2019-05-17T02:52:52.808Z,11.88
2019-05-17T02:55:18.460Z,14.30
2019-05-17T02:57:45.079Z,10.25
2019-05-17T03:00:13.617Z,12.40
2019-05-17T03:02:43.442Z,11.05
2019-05-17T03:05:12.826Z,9.85
2019-05-17T03:07:38.567Z,8.85
2019-05-17T03:10:20.992Z,8.48
2019-05-17T03:12:34.140Z,8.28
2019-05-17T03:15:04.099Z,7.30
2019-05-17T03:17:29.546Z,9.58
2019-05-17T03:20:15.991Z,6.62
2019-05-17T03:22:43.856Z,9.35
2019-05-17T03:25:13.691Z,7.85
2019-05-17T03:27:42.541Z,9.65
2019-05-17T03:30:08.690Z,8.93
2019-05-17T03:32:48.929Z,7.95
2019-05-17T03:35:18.384Z,8.13
2019-05-17T03:37:53.153Z,7.60
2019-05-17T03:40:36.299Z,9.63
2019-05-17T03:42:47.939Z,7.72
2019-05-17T03:45:14.728Z,10.72
2019-05-17T03:47:44.429Z,8.45
2019-05-17T03:50:13.051Z,8.03
2019-05-17T03:52:53.484Z,10.98
2019-05-17T03:55:23.733Z,16.85
2019-05-17T03:57:53.305Z,11.97
2019-05-17T04:00:38.509Z,11.05
2019-05-17T04:03:05.138Z,9.78
2019-05-17T04:05:33.479Z,11.83
2019-05-17T04:08:03.759Z,8.85
2019-05-17T04:10:33.508Z,13.62
2019-05-17T04:13:03.703Z,11.90
2019-05-17T04:15:32.632Z,8.55
2019-05-17T04:17:57.638Z,11.45
2019-05-17T04:20:24.072Z,8.85
2019-05-17T04:22:53.435Z,13.15
2019-05-17T04:25:23.206Z,11.15
2019-05-17T04:27:48.495Z,10.23
2019-05-17T04:30:15.213Z,11.05
2019-05-17T04:32:44.240Z,9.98
2019-05-17T04:35:12.804Z,11.28
2019-05-17T04:37:38.735Z,14.73
2019-05-17T04:40:05.825Z,19.42
2019-05-17T04:42:33.104Z,24.70
2019-05-17T04:45:07.041Z,21.02
2019-05-17T04:47:33.634Z,16.52
2019-05-17T04:50:03.577Z,17.32
2019-05-17T04:52:28.735Z,15.43
2019-05-17T04:54:55.398Z,18.25
2019-05-17T04:57:23.128Z,20.55
2019-05-17T04:59:52.203Z,16.45
2019-05-17T05:02:24.280Z,13.22
2019-05-17T05:04:53.380Z,13.13
2019-05-17T05:07:19.391Z,16.87
2019-05-17T05:09:47.342Z,22.85
2019-05-17T05:12:13.867Z,17.42
2019-05-17T05:14:42.897Z,46.20
2019-05-17T05:17:08.732Z,41.23
2019-05-17T05:19:35.292Z,23.83
2019-05-17T05:22:04.634Z,22.00
2019-05-17T05:24:33.439Z,19.00
2019-05-17T05:27:03.055Z,16.32
2019-05-17T05:29:32.030Z,17.90
2019-05-17T05:31:57.946Z,19.75
2019-05-17T05:34:24.465Z,18.55
2019-05-17T05:36:52.489Z,17.90
2019-05-17T05:39:19.291Z,17.98
2019-05-17T05:41:45.976Z,15.25
2019-05-17T05:44:12.539Z,11.57
2019-05-17T05:46:39.395Z,14.15
2019-05-17T05:49:06.132Z,11.63
2019-05-17T05:51:32.711Z,10.03
2019-05-17T05:54:01.434Z,11.80
2019-05-17T05:56:27.651Z,8.60
2019-05-17T05:58:54.215Z,5.40
2019-05-17T06:01:21.971Z,12.53
2019-05-17T06:03:51.889Z,5.20
2019-05-17T06:06:17.908Z,5.62
2019-05-17T06:08:44.471Z,6.37
2019-05-17T06:11:12.271Z,4.58
2019-05-17T06:13:39.008Z,7.78
2019-05-17T06:16:05.595Z,14.98
2019-05-17T06:18:32.141Z,27.30
2019-05-17T06:20:58.866Z,29.07
2019-05-17T06:23:25.454Z,29.57
2019-05-17T06:25:52.222Z,19.37
2019-05-17T06:28:18.772Z,9.25
2019-05-17T06:30:45.277Z,6.03
2019-05-17T06:33:16.106Z,5.45
2019-05-17T06:35:42.248Z,6.20
2019-05-17T06:38:08.541Z,6.75
2019-05-17T06:40:42.040Z,4.95
2019-05-17T06:43:12.973Z,5.30
2019-05-17T06:45:41.862Z,3.85
2019-05-17T06:48:11.752Z,5.05
2019-05-17T06:50:43.379Z,4.42
2019-05-17T06:53:12.410Z,5.60
2019-05-17T06:55:44.532Z,5.80
2019-05-17T06:58:22.252Z,7.80
2019-05-17T07:00:53.756Z,6.97
2019-05-17T07:03:24.424Z,6.87
2019-05-17T07:05:59.516Z,6.65
2019-05-17T07:08:29.577Z,8.20
2019-05-17T07:11:00.087Z,8.93
2019-05-17T07:13:29.895Z,7.40
2019-05-17T07:15:59.715Z,9.00
2019-05-17T07:18:29.990Z,6.25
2019-05-17T07:21:03.532Z,6.78
2019-05-17T07:23:32.811Z,7.00
2019-05-17T07:26:02.524Z,7.03
2019-05-17T07:28:32.556Z,7.78
2019-05-17T07:31:07.465Z,7.65
2019-05-17T07:33:39.823Z,8.75
2019-05-17T07:36:10.163Z,7.78
2019-05-17T07:38:41.231Z,7.10
2019-05-17T07:41:12.434Z,7.60
2019-05-17T07:43:45.575Z,9.45
2019-05-17T07:46:16.204Z,8.10
2019-05-17T07:48:49.606Z,8.78
2019-05-17T07:51:19.499Z,6.80
2019-05-17T07:53:49.529Z,6.53
2019-05-17T07:56:19.746Z,6.55
2019-05-17T07:58:49.521Z,8.55
2019-05-17T08:01:21.111Z,6.67
2019-05-17T08:03:50.781Z,6.47
2019-05-17T08:06:20.795Z,8.13
2019-05-17T08:08:50.616Z,9.38
2019-05-17T08:11:24.561Z,9.48
2019-05-17T08:13:54.322Z,9.80
2019-05-17T08:16:25.324Z,11.38
2019-05-17T08:19:00.156Z,6.40
2019-05-17T08:21:30.475Z,9.68
2019-05-17T08:24:04.643Z,7.42
2019-05-17T08:26:40.419Z,7.47
2019-05-17T08:29:13.074Z,7.15
2019-05-17T08:31:44.574Z,6.65
2019-05-17T08:34:11.941Z,8.45
2019-05-17T08:36:40.583Z,10.10
2019-05-17T08:39:10.280Z,10.68
2019-05-17T08:41:40.234Z,8.90
2019-05-17T08:44:07.091Z,8.30
2019-05-17T08:46:39.517Z,6.50
2019-05-17T08:49:09.894Z,7.58
2019-05-17T08:51:47.177Z,6.67
2019-05-17T08:54:14.342Z,5.95
2019-05-17T08:56:40.844Z,4.42
2019-05-17T08:59:09.448Z,4.22
2019-05-17T09:01:38.373Z,6.12
2019-05-17T09:04:04.018Z,5.28
2019-05-17T09:06:31.137Z,4.37
2019-05-17T09:08:57.620Z,4.47
2019-05-17T09:11:24.260Z,4.03
2019-05-17T09:13:57.495Z,5.65
2019-05-17T09:16:20.065Z,3.47
2019-05-17T09:18:46.707Z,3.83
2019-05-17T09:21:13.312Z,4.22
2019-05-17T09:23:39.844Z,7.08
2019-05-17T09:26:06.155Z,3.95
2019-05-17T09:28:32.750Z,6.00
2019-05-17T09:30:59.959Z,4.15
2019-05-17T09:33:27.010Z,6.30
2019-05-17T09:35:53.588Z,3.92
2019-05-17T09:38:20.460Z,5.80
2019-05-17T09:40:47.283Z,4.85
2019-05-17T09:43:15.945Z,4.33
2019-05-17T09:45:42.465Z,5.60
2019-05-17T09:48:10.221Z,5.70
2019-05-17T09:50:39.624Z,8.70
2019-05-17T09:53:05.578Z,5.90
2019-05-17T09:55:33.014Z,4.97
2019-05-17T09:58:00.217Z,4.83
2019-05-17T10:00:29.558Z,5.65
2019-05-17T10:02:55.855Z,5.75
2019-05-17T10:05:22.384Z,5.87
2019-05-17T10:07:50.673Z,5.12
2019-05-17T10:10:20.072Z,4.95
2019-05-17T10:12:46.219Z,6.17
2019-05-17T10:15:14.224Z,4.80
2019-05-17T10:17:40.816Z,5.08
2019-05-17T10:20:07.629Z,4.65
2019-05-17T10:22:34.192Z,4.47
2019-05-17T10:25:00.642Z,5.17
2019-05-17T10:27:27.423Z,5.28
2019-05-17T10:29:53.792Z,8.05
2019-05-17T10:32:20.624Z,4.70
2019-05-17T10:34:49.499Z,4.30
2019-05-17T10:37:16.508Z,3.90
2019-05-17T10:39:43.197Z,6.03
2019-05-17T10:42:10.095Z,8.03
2019-05-17T10:44:46.189Z,7.15
2019-05-17T10:47:05.230Z,5.15
2019-05-17T10:49:31.770Z,6.20
2019-05-17T10:51:59.927Z,4.17
2019-05-17T10:54:26.897Z,4.12
2019-05-17T10:56:53.568Z,4.92
2019-05-17T10:59:20.370Z,3.22
2019-05-17T11:01:47.150Z,4.20
2019-05-17T11:04:13.765Z,3.30
2019-05-17T11:06:40.493Z,3.90
2019-05-17T11:09:10.065Z,3.85
2019-05-17T11:11:36.254Z,6.92
2019-05-17T11:14:03.272Z,4.90
2019-05-17T11:16:29.967Z,4.42
2019-05-17T11:18:56.484Z,3.90
2019-05-17T11:21:23.257Z,3.67
2019-05-17T11:23:49.899Z,3.98
2019-05-17T11:26:16.559Z,5.70
2019-05-17T11:28:43.323Z,3.10
2019-05-17T11:31:09.790Z,3.40
2019-05-17T11:33:49.841Z,4.28
2019-05-17T11:36:16.544Z,3.37
2019-05-17T11:38:43.084Z,6.33
2019-05-17T11:41:20.773Z,6.37
2019-05-17T11:43:58.032Z,3.33
2019-05-17T11:46:35.962Z,3.17
2019-05-17T11:48:52.951Z,6.08
2019-05-17T11:51:19.656Z,6.28
2019-05-17T11:53:46.258Z,5.75
2019-05-17T11:56:21.510Z,3.95
2019-05-17T11:58:48.520Z,3.47
2019-05-17T12:01:15.258Z,3.22
2019-05-17T12:03:42.536Z,4.92
2019-05-17T12:06:09.481Z,3.98
2019-05-17T12:08:36.334Z,7.70
2019-05-17T12:11:03.597Z,5.12
2019-05-17T12:13:30.635Z,4.08
2019-05-17T12:15:57.462Z,3.47
2019-05-17T12:18:24.446Z,4.20
2019-05-17T12:20:51.686Z,6.75
2019-05-17T12:23:19.054Z,3.90
2019-05-17T12:25:45.800Z,4.37
2019-05-17T12:28:12.818Z,3.87
2019-05-17T12:30:39.576Z,5.25
2019-05-17T12:33:06.486Z,4.08
2019-05-17T12:35:33.270Z,2.42
2019-05-17T12:38:02.821Z,3.05
2019-05-17T12:40:29.607Z,3.70
2019-05-17T12:42:56.259Z,3.62
2019-05-17T12:45:23.216Z,6.15
2019-05-17T12:47:49.773Z,15.53
2019-05-17T12:50:16.660Z,5.72
2019-05-17T12:52:43.454Z,3.67
2019-05-17T12:55:10.406Z,3.90
2019-05-17T12:57:37.040Z,7.28
2019-05-17T13:00:07.261Z,4.10
2019-05-17T13:02:33.720Z,4.67
2019-05-17T13:05:00.318Z,3.55
2019-05-17T13:07:26.830Z,5.28
2019-05-17T13:09:53.281Z,4.15
2019-05-17T13:12:20.105Z,5.67
2019-05-17T13:14:46.799Z,6.70
2019-05-17T13:17:13.457Z,5.10
2019-05-17T13:19:40.239Z,2.90
2019-05-17T13:22:06.887Z,5.30
2019-05-17T13:24:37.898Z,3.30
2019-05-17T13:27:04.623Z,4.78
2019-05-17T13:29:31.368Z,4.87
2019-05-17T13:32:00.841Z,3.55
2019-05-17T13:34:27.378Z,3.52
2019-05-17T13:36:53.953Z,4.28
2019-05-17T13:39:20.667Z,4.47
2019-05-17T13:41:47.284Z,4.50
2019-05-17T13:44:13.840Z,3.70
2019-05-17T13:46:40.537Z,7.53
2019-05-17T13:49:07.121Z,3.80
2019-05-17T13:51:33.756Z,3.77
2019-05-17T13:54:00.176Z,4.67
2019-05-17T13:56:26.738Z,3.42
2019-05-17T13:58:53.395Z,7.80
2019-05-17T14:01:19.879Z,4.33
2019-05-17T14:03:46.351Z,5.12
2019-05-17T14:06:13.047Z,3.77
2019-05-17T14:08:43.082Z,4.45
2019-05-17T14:11:10.292Z,3.52
2019-05-17T14:13:37.738Z,3.77
2019-05-17T14:16:04.366Z,3.80
2019-05-17T14:18:30.791Z,4.45
2019-05-17T14:20:57.318Z,5.03
2019-05-17T14:23:24.126Z,3.33
2019-05-17T14:25:50.792Z,3.75
2019-05-17T14:28:18.525Z,3.52
2019-05-17T14:30:45.439Z,4.15
2019-05-17T14:33:12.071Z,4.05
2019-05-17T14:35:38.543Z,4.05
2019-05-17T14:38:05.378Z,3.52
2019-05-17T14:41:04.082Z,4.00
2019-05-17T14:43:01.074Z,4.45
2019-05-17T14:45:27.814Z,5.37
2019-05-17T14:47:54.541Z,4.10
2019-05-17T14:50:21.187Z,4.58
2019-05-17T14:52:47.698Z,3.47
2019-05-17T14:55:14.498Z,3.20
2019-05-17T14:57:43.060Z,3.62
2019-05-17T15:00:10.321Z,4.42
2019-05-17T15:02:38.145Z,3.10
2019-05-17T15:05:06.060Z,3.27
2019-05-17T15:07:32.733Z,4.83
2019-05-17T15:09:59.358Z,3.70
2019-05-17T15:12:28.623Z,5.92
2019-05-17T15:14:56.193Z,4.45
2019-05-17T15:17:22.902Z,3.22
2019-05-17T15:19:51.412Z,6.70
2019-05-17T15:22:17.827Z,5.55
2019-05-17T15:24:44.347Z,4.30
2019-05-17T15:27:10.970Z,3.67
2019-05-17T15:29:37.642Z,2.72
2019-05-17T15:32:04.067Z,4.83
2019-05-17T15:34:30.527Z,4.80
2019-05-17T15:36:57.178Z,2.65
2019-05-17T15:39:23.783Z,3.72
2019-05-17T15:41:50.500Z,5.30
2019-05-17T15:44:17.081Z,4.50
2019-05-17T15:46:43.764Z,4.22
2019-05-17T15:49:10.354Z,3.22
2019-05-17T15:51:36.952Z,3.10
2019-05-17T15:54:03.636Z,2.87
2019-05-17T15:56:30.226Z,3.00
2019-05-17T15:58:56.632Z,3.45
2019-05-17T16:01:23.286Z,3.52
2019-05-17T16:03:49.825Z,2.55
2019-05-17T16:06:16.992Z,2.42
2019-05-17T16:08:43.630Z,3.30
2019-05-17T16:11:10.070Z,3.90
2019-05-17T16:13:36.475Z,4.92
2019-05-17T16:16:03.760Z,2.75
2019-05-17T16:18:30.332Z,4.35
2019-05-17T16:20:56.885Z,3.55
2019-05-17T16:23:23.446Z,3.30
2019-05-17T16:25:49.936Z,3.90
2019-05-17T16:28:16.741Z,3.27
2019-05-17T16:30:44.712Z,3.33
2019-05-17T16:33:11.613Z,6.78
2019-05-17T16:35:38.452Z,6.00
2019-05-17T16:38:08.015Z,5.10
2019-05-17T16:40:39.772Z,10.63
2019-05-17T16:43:17.682Z,5.22
2019-05-17T16:45:34.846Z,6.83
2019-05-17T16:48:01.548Z,7.80
2019-05-17T16:50:28.262Z,4.55
2019-05-17T16:53:05.703Z,4.45
2019-05-17T16:55:26.042Z,5.60
2019-05-17T16:57:51.979Z,3.70
2019-05-17T17:00:37.121Z,4.12
2019-05-17T17:05:52.497Z,3.08
2019-05-17T17:08:19.070Z,4.10
2019-05-17T17:10:45.551Z,5.47
2019-05-17T17:13:12.261Z,3.50
2019-05-17T17:15:39.774Z,6.00
2019-05-17T17:18:06.571Z,3.62
2019-05-17T17:20:33.267Z,6.78
2019-05-17T17:22:59.909Z,3.02
2019-05-17T17:25:26.706Z,2.70
2019-05-17T17:27:53.302Z,2.10
2019-05-17T17:30:19.968Z,3.85
2019-05-17T17:32:46.624Z,6.78
2019-05-17T17:35:13.944Z,8.03
2019-05-17T17:37:40.373Z,4.10
2019-05-17T17:40:08.502Z,6.10
2019-05-17T17:42:36.996Z,8.65
2019-05-17T17:45:06.294Z,11.40
2019-05-17T17:47:32.948Z,3.40
2019-05-17T17:49:59.625Z,6.47
2019-05-17T17:52:26.185Z,3.77
2019-05-17T17:54:52.923Z,5.58
2019-05-17T17:57:19.445Z,5.53
2019-05-17T17:59:45.721Z,10.70
2019-05-17T18:02:12.241Z,4.47
2019-05-17T18:04:38.743Z,2.75
2019-05-17T18:07:05.537Z,2.60
2019-05-17T18:09:32.071Z,2.60
2019-05-17T18:11:58.672Z,3.62
2019-05-17T18:14:25.433Z,3.55
2019-05-17T18:16:51.899Z,6.30
2019-05-17T18:19:19.267Z,5.75
2019-05-17T18:21:45.834Z,4.42
2019-05-17T18:24:12.328Z,3.47
2019-05-17T18:26:39.084Z,4.05
2019-05-17T18:29:07.972Z,4.47
2019-05-17T18:31:34.259Z,5.08
2019-05-17T18:34:01.932Z,3.12
2019-05-17T18:36:28.530Z,4.55
2019-05-17T18:38:55.456Z,5.12
2019-05-17T18:41:21.972Z,2.98
2019-05-17T18:43:48.368Z,5.97
2019-05-17T18:46:15.021Z,31.70
2019-05-17T18:48:41.814Z,6.62
2019-05-17T18:51:08.466Z,5.97
2019-05-17T18:53:35.097Z,5.53
2019-05-17T18:56:01.760Z,4.08
2019-05-17T18:58:28.446Z,3.37
2019-05-17T19:00:55.287Z,4.42
2019-05-17T19:03:21.758Z,6.42
2019-05-17T19:06:01.628Z,6.22
2019-05-17T19:08:28.328Z,3.50
2019-05-17T19:10:54.767Z,3.00
2019-05-17T19:13:21.394Z,4.47
2019-05-17T19:15:48.112Z,5.62
2019-05-17T19:18:14.817Z,2.47
2019-05-17T19:20:43.366Z,4.97
2019-05-17T19:23:10.304Z,2.92
2019-05-17T19:25:37.235Z,5.05
2019-05-17T19:28:03.698Z,4.92
2019-05-17T19:30:32.018Z,4.10
2019-05-17T19:32:58.757Z,4.72
2019-05-17T19:35:25.386Z,6.83
2019-05-17T19:37:51.857Z,3.58
2019-05-17T19:40:23.177Z,3.87
2019-05-17T19:42:49.855Z,6.72
2019-05-17T19:45:18.425Z,3.98
2019-05-17T19:47:45.069Z,4.87
2019-05-17T19:50:11.669Z,3.22
2019-05-17T19:52:38.269Z,4.83
2019-05-17T19:55:05.719Z,3.10
2019-05-17T19:57:32.360Z,5.12
2019-05-17T19:59:58.769Z,6.00
2019-05-17T20:02:25.372Z,3.25
2019-05-17T20:04:52.053Z,7.65
2019-05-17T20:07:18.747Z,10.23
2019-05-17T20:09:45.179Z,11.85
2019-05-17T20:12:11.869Z,7.00
2019-05-17T20:14:38.510Z,13.50
2019-05-17T20:17:05.188Z,14.65
2019-05-17T20:19:31.750Z,16.97
2019-05-17T20:21:58.960Z,6.90
2019-05-17T20:24:25.520Z,9.03
2019-05-17T20:26:52.081Z,4.90
2019-05-17T20:29:18.886Z,2.92
2019-05-17T20:31:45.442Z,5.78
2019-05-17T20:34:11.952Z,5.00
2019-05-17T20:36:38.412Z,6.03
2019-05-17T20:39:05.034Z,3.98
2019-05-17T20:41:31.704Z,5.95
2019-05-17T20:43:58.505Z,8.45
2019-05-17T20:46:24.922Z,3.05
2019-05-17T20:48:51.457Z,5.15
2019-05-17T20:51:18.038Z,8.28
2019-05-17T20:53:44.736Z,8.60
2019-05-17T20:56:11.416Z,10.13
2019-05-17T20:58:38.106Z,5.30
2019-05-17T21:01:04.855Z,4.90
2019-05-17T21:03:31.534Z,5.12
2019-05-17T21:05:58.426Z,5.05
2019-05-17T21:08:26.856Z,5.70
2019-05-17T21:10:53.834Z,4.65
2019-05-17T21:13:20.503Z,5.97
2019-05-17T21:15:48.245Z,6.30
2019-05-17T21:18:15.046Z,6.70
2019-05-17T21:20:41.548Z,5.37
2019-05-17T21:23:08.643Z,5.05
2019-05-17T21:25:35.349Z,6.95
2019-05-17T21:28:01.783Z,6.58
2019-05-17T21:30:28.460Z,3.45
2019-05-17T21:32:56.359Z,3.98
2019-05-17T21:35:23.716Z,3.87
2019-05-17T21:37:50.270Z,5.20
2019-05-17T21:40:17.847Z,6.28
2019-05-17T21:42:44.433Z,3.58
2019-05-17T21:45:11.406Z,3.22
2019-05-17T21:47:37.735Z,3.60
2019-05-17T21:50:05.405Z,6.45
2019-05-17T21:52:31.888Z,4.08
2019-05-17T21:54:58.488Z,3.67
2019-05-17T21:57:24.926Z,4.53
2019-05-17T21:59:51.419Z,4.05
2019-05-17T22:02:18.180Z,4.20
2019-05-17T22:04:45.991Z,5.58
2019-05-17T22:07:12.402Z,5.65
2019-05-17T22:09:39.120Z,7.95
2019-05-17T22:12:07.513Z,6.15
2019-05-17T22:14:34.018Z,4.87
2019-05-17T22:17:00.687Z,6.78
2019-05-17T22:19:27.239Z,9.10
2019-05-17T22:21:53.723Z,6.95
2019-05-17T22:24:21.153Z,6.00
2019-05-17T22:26:47.523Z,7.50
2019-05-17T22:29:14.227Z,6.83
2019-05-17T22:31:40.634Z,10.32
2019-05-17T22:34:07.054Z,6.60
2019-05-17T22:36:35.080Z,6.35
2019-05-17T22:39:01.683Z,6.25
2019-05-17T22:41:30.165Z,8.25
2019-05-17T22:43:56.729Z,5.37
2019-05-17T22:46:35.474Z,4.25
2019-05-17T22:48:51.497Z,3.50
2019-05-17T22:51:18.056Z,3.40
2019-05-17T22:53:44.504Z,4.65
2019-05-17T22:56:11.183Z,2.72
2019-05-17T22:58:37.591Z,2.30
2019-05-17T23:01:04.145Z,3.00
2019-05-17T23:03:30.540Z,2.42
2019-05-17T23:05:57.071Z,2.40
2019-05-17T23:08:23.762Z,2.10
2019-05-17T23:10:50.254Z,1.87
2019-05-17T23:13:16.857Z,2.85
2019-05-17T23:16:02.915Z,3.27
2019-05-17T23:18:30.845Z,2.00
2019-05-17T23:21:17.017Z,2.67
2019-05-17T23:23:43.789Z,4.65
2019-05-17T23:26:11.105Z,2.92
2019-05-17T23:28:37.593Z,2.08
2019-05-17T23:31:04.039Z,2.15
2019-05-17T23:33:30.681Z,2.42
2019-05-17T23:35:57.508Z,2.00
2019-05-17T23:38:25.346Z,2.05
2019-05-17T23:40:52.061Z,2.27
2019-05-17T23:43:19.788Z,3.17
2019-05-17T23:45:46.650Z,1.82
2019-05-17T23:48:13.203Z,2.37
2019-05-17T23:50:39.493Z,3.25
2019-05-17T23:53:05.936Z,2.80
2019-05-17T23:55:52.205Z,3.77
2019-05-17T23:58:18.864Z,1.67
